createdAt,value
2018-09-25T00:01:11.834Z,5.93
2018-09-25T00:03:47.720Z,3.53
2018-09-25T00:06:23.520Z,5.67
2018-09-25T00:08:59.504Z,4.83
2018-09-25T00:11:35.475Z,3.70
2018-09-25T00:14:11.243Z,3.87
2018-09-25T00:16:46.887Z,7.13
2018-09-25T00:19:22.791Z,4.07
2018-09-25T00:21:58.558Z,3.17
2018-09-25T00:24:34.387Z,4.00
2018-09-25T00:27:10.214Z,4.87
2018-09-25T00:29:45.843Z,5.20
2018-09-25T00:32:52.621Z,4.63
2018-09-25T00:35:28.450Z,7.37
2018-09-25T00:38:04.193Z,6.20
2018-09-25T00:40:40.187Z,6.37
2018-09-25T00:43:16.124Z,6.57
2018-09-25T00:45:51.941Z,4.77
2018-09-25T00:48:28.732Z,8.27
2018-09-25T00:51:04.587Z,6.07
2018-09-25T00:53:40.459Z,4.77
2018-09-25T00:56:16.234Z,6.33
2018-09-25T00:58:52.123Z,6.30
2018-09-25T01:01:27.822Z,5.07
2018-09-25T01:04:03.734Z,6.03
2018-09-25T01:06:39.506Z,6.00
2018-09-25T01:09:15.292Z,7.13
2018-09-25T01:11:51.013Z,7.70
2018-09-25T01:14:26.806Z,7.60
2018-09-25T01:17:02.774Z,6.03
2018-09-25T01:19:38.680Z,6.53
2018-09-25T01:22:14.496Z,6.23
2018-09-25T01:24:50.389Z,6.00
2018-09-25T01:27:26.160Z,6.83
2018-09-25T01:30:01.903Z,5.20
2018-09-25T01:32:37.661Z,7.40
2018-09-25T01:35:13.581Z,5.57
2018-09-25T01:37:49.383Z,6.00
2018-09-25T01:40:25.334Z,7.77
2018-09-25T01:43:01.203Z,7.70
2018-09-25T01:45:36.994Z,5.63
2018-09-25T01:48:13.017Z,5.50
2018-09-25T01:50:48.887Z,3.83
2018-09-25T01:53:24.641Z,5.53
2018-09-25T01:56:00.564Z,7.50
2018-09-25T01:58:36.331Z,7.70
2018-09-25T02:01:12.133Z,6.40
2018-09-25T02:03:48.048Z,6.37
2018-09-25T02:06:23.954Z,4.17
2018-09-25T02:08:59.916Z,5.57
2018-09-25T02:11:35.769Z,5.00
2018-09-25T02:14:11.710Z,5.87
2018-09-25T02:16:47.501Z,4.43
2018-09-25T02:19:23.494Z,6.47
2018-09-25T02:21:59.266Z,5.70
2018-09-25T02:24:35.039Z,8.90
2018-09-25T02:27:10.779Z,6.90
2018-09-25T02:29:46.488Z,7.47
2018-09-25T02:32:22.280Z,7.77
2018-09-25T02:34:58.139Z,6.33
2018-09-25T02:37:34.020Z,5.73
2018-09-25T02:40:09.853Z,7.50
2018-09-25T02:42:45.679Z,4.53
2018-09-25T02:45:21.601Z,7.13
2018-09-25T02:47:57.404Z,6.20
2018-09-25T02:50:33.292Z,6.53
2018-09-25T02:53:09.180Z,6.53
2018-09-25T02:55:44.988Z,9.10
2018-09-25T02:58:20.724Z,6.17
2018-09-25T03:00:56.585Z,11.03
2018-09-25T03:03:32.364Z,7.63
2018-09-25T03:06:08.709Z,7.33
2018-09-25T03:08:44.412Z,5.33
2018-09-25T03:11:20.308Z,7.17
2018-09-25T03:13:56.300Z,8.23
2018-09-25T03:16:32.057Z,8.53
2018-09-25T03:19:07.907Z,7.23
2018-09-25T03:21:43.643Z,6.87
2018-09-25T03:24:19.415Z,7.77
2018-09-25T03:26:55.098Z,7.20
2018-09-25T03:29:30.842Z,6.70
2018-09-25T03:32:06.737Z,7.90
2018-09-25T03:34:42.633Z,6.33
2018-09-25T03:37:18.342Z,6.37
2018-09-25T03:39:54.214Z,8.77
2018-09-25T03:42:30.044Z,9.50
2018-09-25T03:45:05.914Z,9.23
2018-09-25T03:47:41.783Z,8.33
2018-09-25T03:50:17.782Z,7.00
2018-09-25T03:52:53.728Z,6.43
2018-09-25T03:55:29.512Z,6.73
2018-09-25T03:58:05.258Z,8.37
2018-09-25T04:00:40.923Z,6.63
2018-09-25T04:03:16.770Z,8.20
2018-09-25T04:05:52.628Z,7.47
2018-09-25T04:08:28.525Z,6.23
2018-09-25T04:11:04.112Z,8.43
2018-09-25T04:13:39.984Z,7.10
2018-09-25T04:16:15.992Z,6.17
2018-09-25T04:18:51.768Z,10.47
2018-09-25T04:21:27.567Z,7.67
2018-09-25T04:24:03.523Z,6.73
2018-09-25T04:26:39.531Z,7.63
2018-09-25T04:29:15.341Z,7.43
2018-09-25T04:31:51.139Z,7.30
2018-09-25T04:34:26.856Z,7.77
2018-09-25T04:37:02.609Z,7.57
2018-09-25T04:39:38.333Z,8.80
2018-09-25T04:42:14.328Z,6.77
2018-09-25T04:44:50.075Z,7.37
2018-09-25T04:47:25.956Z,8.60
2018-09-25T04:50:01.879Z,6.40
2018-09-25T04:52:37.683Z,5.87
2018-09-25T04:55:13.578Z,7.10
2018-09-25T04:57:49.440Z,6.57
2018-09-25T05:00:25.264Z,7.20
2018-09-25T05:03:02.051Z,9.57
2018-09-25T05:05:37.900Z,8.27
2018-09-25T05:08:13.684Z,10.30
2018-09-25T05:10:49.531Z,8.37
2018-09-25T05:13:25.424Z,8.67
2018-09-25T05:16:01.232Z,10.93
2018-09-25T05:18:36.965Z,8.57
2018-09-25T05:21:12.870Z,9.70
2018-09-25T05:23:48.771Z,8.47
2018-09-25T05:26:24.499Z,8.20
2018-09-25T05:29:00.369Z,8.97
2018-09-25T05:31:36.226Z,7.40
2018-09-25T05:34:11.959Z,8.07
2018-09-25T05:36:47.898Z,6.73
2018-09-25T05:39:23.670Z,9.57
2018-09-25T05:41:59.575Z,10.67
2018-09-25T05:44:35.309Z,10.47
2018-09-25T05:47:11.407Z,11.63
2018-09-25T05:49:47.031Z,11.53
2018-09-25T05:52:22.883Z,10.43
2018-09-25T05:54:58.636Z,10.83
2018-09-25T05:57:34.453Z,9.17
2018-09-25T06:00:10.577Z,14.33
2018-09-25T06:02:46.305Z,9.87
2018-09-25T06:05:22.305Z,10.60
2018-09-25T06:07:58.817Z,10.30
2018-09-25T06:10:34.591Z,10.73
2018-09-25T06:13:10.482Z,9.07
2018-09-25T06:15:46.392Z,9.17
2018-09-25T06:18:22.683Z,11.77
2018-09-25T06:20:58.461Z,10.97
2018-09-25T06:23:34.146Z,11.93
2018-09-25T06:26:10.091Z,12.17
2018-09-25T06:28:45.876Z,10.67
2018-09-25T06:31:21.714Z,10.73
2018-09-25T06:33:57.454Z,11.40
2018-09-25T06:36:33.127Z,10.80
2018-09-25T06:39:09.018Z,11.03
2018-09-25T06:41:44.884Z,14.50
2018-09-25T06:44:20.552Z,10.43
2018-09-25T06:46:56.338Z,9.53
2018-09-25T06:49:32.135Z,10.13
2018-09-25T06:52:08.022Z,9.83
2018-09-25T06:54:44.004Z,11.63
2018-09-25T06:57:19.859Z,10.97
2018-09-25T06:59:55.796Z,11.27
2018-09-25T07:02:31.720Z,10.07
2018-09-25T07:05:07.495Z,9.83
2018-09-25T07:07:43.300Z,13.03
2018-09-25T07:10:19.111Z,8.70
2018-09-25T07:12:54.955Z,11.80
2018-09-25T07:15:30.719Z,7.50
2018-09-25T07:18:06.739Z,9.57
2018-09-25T07:20:42.493Z,12.00
2018-09-25T07:23:18.183Z,12.67
2018-09-25T07:25:54.054Z,8.97
2018-09-25T07:28:29.751Z,11.47
2018-09-25T07:31:05.579Z,7.27
2018-09-25T07:33:41.401Z,10.63
2018-09-25T07:36:17.115Z,9.30
2018-09-25T07:38:52.963Z,6.57
2018-09-25T07:41:28.708Z,10.43
2018-09-25T07:44:04.475Z,8.63
2018-09-25T07:46:40.329Z,8.83
2018-09-25T07:49:16.131Z,11.00
2018-09-25T07:51:52.044Z,7.70
2018-09-25T07:54:27.976Z,8.57
2018-09-25T07:57:03.879Z,9.37
2018-09-25T07:59:39.910Z,8.10
2018-09-25T08:02:15.570Z,8.37
2018-09-25T08:04:51.401Z,7.03
2018-09-25T08:07:27.243Z,7.73
2018-09-25T08:10:03.129Z,7.10
2018-09-25T08:12:39.025Z,7.13
2018-09-25T08:15:14.912Z,9.00
2018-09-25T08:17:50.689Z,7.77
2018-09-25T08:20:26.655Z,7.60
2018-09-25T08:23:02.520Z,6.70
2018-09-25T08:25:38.887Z,5.80
2018-09-25T08:28:14.750Z,7.33
2018-09-25T08:30:50.452Z,4.83
2018-09-25T08:33:26.365Z,7.47
2018-09-25T08:36:02.376Z,8.27
2018-09-25T08:38:38.060Z,6.43
2018-09-25T08:41:13.928Z,7.07
2018-09-25T08:43:49.652Z,6.27
2018-09-25T08:46:25.412Z,8.87
2018-09-25T08:49:01.235Z,5.23
2018-09-25T08:51:37.146Z,6.00
2018-09-25T08:54:12.942Z,4.93
2018-09-25T08:56:48.750Z,4.70
2018-09-25T08:59:24.471Z,4.63
2018-09-25T09:02:00.370Z,5.77
2018-09-25T09:04:36.113Z,5.27
2018-09-25T09:07:11.982Z,3.47
2018-09-25T09:09:47.927Z,2.37
2018-09-25T09:12:23.703Z,4.07
2018-09-25T09:14:59.594Z,4.67
2018-09-25T09:17:35.403Z,4.20
2018-09-25T09:20:11.154Z,3.07
2018-09-25T09:22:47.033Z,4.23
2018-09-25T09:25:22.835Z,5.77
2018-09-25T09:27:58.656Z,4.77
2018-09-25T09:30:34.580Z,3.80
2018-09-25T09:33:10.520Z,4.80
2018-09-25T09:35:46.344Z,3.10
2018-09-25T09:38:22.044Z,3.63
2018-09-25T09:40:57.826Z,5.53
2018-09-25T09:43:33.763Z,3.93
2018-09-25T09:46:09.623Z,4.53
2018-09-25T09:48:45.396Z,2.97
2018-09-25T09:51:21.331Z,4.00
2018-09-25T09:53:57.039Z,5.27
2018-09-25T09:56:33.066Z,3.00
2018-09-25T09:59:08.879Z,3.50
2018-09-25T10:01:44.788Z,2.27
2018-09-25T10:04:20.659Z,6.57
2018-09-25T10:06:56.633Z,2.87
2018-09-25T10:09:32.457Z,4.07
2018-09-25T10:12:08.183Z,2.47
2018-09-25T10:14:44.080Z,5.13
2018-09-25T10:17:20.076Z,2.47
2018-09-25T10:19:56.078Z,2.10
2018-09-25T10:22:31.871Z,2.90
2018-09-25T10:25:07.638Z,3.57
2018-09-25T10:27:43.570Z,2.13
2018-09-25T10:30:19.303Z,3.33
2018-09-25T10:32:55.236Z,3.33
2018-09-25T10:35:31.036Z,4.60
2018-09-25T10:38:06.863Z,3.13
2018-09-25T10:40:42.643Z,4.47
2018-09-25T10:43:18.565Z,4.57
2018-09-25T10:45:54.482Z,4.63
2018-09-25T10:48:30.251Z,4.00
2018-09-25T10:51:06.033Z,3.13
2018-09-25T10:53:41.901Z,5.87
2018-09-25T10:56:17.854Z,3.20
2018-09-25T10:58:53.530Z,2.63
2018-09-25T11:01:29.382Z,3.20
2018-09-25T11:04:05.289Z,2.50
2018-09-25T11:06:41.215Z,5.03
2018-09-25T11:09:17.121Z,2.17
2018-09-25T11:11:52.951Z,3.10
2018-09-25T11:14:28.824Z,2.23
2018-09-25T11:17:04.784Z,1.40
2018-09-25T11:19:40.609Z,2.23
2018-09-25T11:22:16.248Z,2.53
2018-09-25T11:24:51.936Z,1.83
2018-09-25T11:27:27.790Z,4.13
2018-09-25T11:30:03.561Z,2.17
2018-09-25T11:32:39.405Z,2.53
2018-09-25T11:35:15.489Z,2.70
2018-09-25T11:37:51.301Z,3.20
2018-09-25T11:40:27.096Z,3.57
2018-09-25T11:43:02.834Z,2.80
2018-09-25T11:45:38.719Z,5.47
2018-09-25T11:48:14.850Z,1.93
2018-09-25T11:50:50.590Z,1.50
2018-09-25T11:53:26.533Z,3.20
2018-09-25T11:56:02.395Z,1.87
2018-09-25T11:58:38.245Z,2.50
2018-09-25T12:01:14.118Z,2.63
2018-09-25T12:03:50.089Z,4.10
2018-09-25T12:06:25.967Z,3.70
2018-09-25T12:09:01.645Z,3.60
2018-09-25T12:11:37.438Z,1.60
2018-09-25T12:14:13.323Z,4.70
2018-09-25T12:16:49.037Z,2.17
2018-09-25T12:19:24.759Z,5.23
2018-09-25T12:22:00.700Z,3.87
2018-09-25T12:24:36.367Z,3.03
2018-09-25T12:27:12.552Z,2.20
2018-09-25T12:29:48.448Z,5.40
2018-09-25T12:32:24.343Z,3.17
2018-09-25T12:34:59.971Z,3.37
2018-09-25T12:37:35.790Z,4.97
2018-09-25T12:40:11.518Z,2.80
2018-09-25T12:42:47.442Z,3.20
2018-09-25T12:45:23.341Z,5.13
2018-09-25T12:47:59.208Z,3.93
2018-09-25T12:50:35.171Z,4.33
2018-09-25T12:53:10.907Z,4.10
2018-09-25T12:55:46.688Z,3.37
2018-09-25T12:58:22.624Z,5.40
2018-09-25T13:00:58.386Z,6.70
2018-09-25T13:03:34.164Z,2.73
2018-09-25T13:06:10.104Z,5.47
2018-09-25T13:08:46.091Z,4.47
2018-09-25T13:11:21.928Z,3.03
2018-09-25T13:13:57.891Z,2.40
2018-09-25T13:16:33.598Z,2.70
2018-09-25T13:19:09.383Z,1.43
2018-09-25T13:21:45.209Z,4.03
2018-09-25T13:24:21.008Z,3.13
2018-09-25T13:26:57.058Z,3.40
2018-09-25T13:29:32.796Z,3.60
2018-09-25T13:32:08.651Z,3.83
2018-09-25T13:34:44.451Z,2.73
2018-09-25T13:37:20.158Z,2.97
2018-09-25T13:39:56.078Z,3.10
2018-09-25T13:42:31.955Z,4.57
2018-09-25T13:45:07.751Z,3.53
2018-09-25T13:47:43.633Z,5.73
2018-09-25T13:50:19.374Z,2.43
2018-09-25T13:52:55.375Z,2.43
2018-09-25T13:55:31.200Z,3.57
2018-09-25T13:58:07.145Z,4.67
2018-09-25T14:00:43.017Z,4.23
2018-09-25T14:03:18.895Z,2.70
2018-09-25T14:05:54.675Z,4.17
2018-09-25T14:08:30.441Z,1.90
2018-09-25T14:11:06.243Z,4.30
2018-09-25T14:13:42.081Z,2.10
2018-09-25T14:16:17.835Z,2.43
2018-09-25T14:18:53.649Z,5.53
2018-09-25T14:21:29.472Z,2.47
2018-09-25T14:24:05.316Z,2.63
2018-09-25T14:26:41.282Z,2.70
2018-09-25T14:29:17.123Z,3.43
2018-09-25T14:31:52.954Z,2.83
2018-09-25T14:34:28.949Z,3.17
2018-09-25T14:37:04.864Z,3.20
2018-09-25T14:39:40.583Z,2.40
2018-09-25T14:42:16.370Z,3.27
2018-09-25T14:44:52.266Z,2.87
2018-09-25T14:47:28.185Z,3.23
2018-09-25T14:50:04.053Z,2.47
2018-09-25T14:52:39.895Z,2.70
2018-09-25T14:55:15.798Z,2.80
2018-09-25T14:57:51.719Z,4.57
2018-09-25T15:00:27.683Z,4.53
2018-09-25T15:03:03.499Z,2.57
2018-09-25T15:05:39.535Z,2.13
2018-09-25T15:08:15.467Z,1.33
2018-09-25T15:10:51.315Z,2.43
2018-09-25T15:13:27.123Z,1.53
2018-09-25T15:16:02.951Z,3.97
2018-09-25T15:18:38.906Z,1.20
2018-09-25T15:21:15.346Z,1.63
2018-09-25T15:23:51.284Z,1.33
2018-09-25T15:26:27.133Z,2.27
2018-09-25T15:29:03.008Z,2.03
2018-09-25T15:31:38.919Z,1.40
2018-09-25T15:34:14.648Z,1.23
2018-09-25T15:36:50.487Z,1.17
2018-09-25T15:39:26.323Z,1.57
2018-09-25T15:42:02.265Z,4.47
2018-09-25T15:44:38.160Z,1.53
2018-09-25T15:47:13.997Z,2.57
2018-09-25T15:49:49.858Z,2.33
2018-09-25T15:52:25.683Z,2.47
2018-09-25T15:55:01.376Z,2.50
2018-09-25T15:57:37.332Z,1.17
2018-09-25T16:00:13.674Z,2.17
2018-09-25T16:02:49.401Z,1.53
2018-09-25T16:05:25.312Z,1.73
2018-09-25T16:08:01.203Z,1.73
2018-09-25T16:10:37.055Z,2.50
2018-09-25T16:13:12.853Z,2.07
2018-09-25T16:15:48.717Z,1.70
2018-09-25T16:18:24.579Z,1.10
2018-09-25T16:21:00.421Z,2.43
2018-09-25T16:23:36.284Z,1.80
2018-09-25T16:26:12.419Z,1.90
2018-09-25T16:28:48.320Z,2.07
2018-09-25T16:31:24.329Z,1.90
2018-09-25T16:34:00.215Z,4.37
2018-09-25T16:36:36.184Z,2.40
2018-09-25T16:39:15.383Z,2.13
2018-09-25T16:41:51.242Z,2.03
2018-09-25T16:44:27.148Z,2.33
2018-09-25T16:47:03.106Z,2.50
2018-09-25T16:49:38.830Z,2.87
2018-09-25T16:52:14.776Z,2.23
2018-09-25T16:54:50.671Z,1.07
2018-09-25T16:57:26.562Z,2.20
2018-09-25T17:00:02.529Z,2.93
2018-09-25T17:02:38.322Z,3.13
2018-09-25T17:05:14.347Z,3.13
2018-09-25T17:07:50.276Z,3.47
2018-09-25T17:10:26.391Z,2.67
2018-09-25T17:13:02.248Z,3.87
2018-09-25T17:15:38.295Z,2.60
2018-09-25T17:18:14.230Z,5.13
2018-09-25T17:20:50.335Z,1.83
2018-09-25T17:23:26.234Z,4.70
2018-09-25T17:26:02.169Z,3.03
2018-09-25T17:28:38.019Z,2.33
2018-09-25T17:31:13.919Z,5.37
2018-09-25T17:33:49.949Z,1.53
2018-09-25T17:36:25.786Z,2.60
2018-09-25T17:39:01.538Z,3.87
2018-09-25T17:41:37.645Z,2.33
2018-09-25T17:44:13.607Z,2.30
2018-09-25T17:46:49.414Z,3.20
2018-09-25T17:49:25.498Z,3.87
2018-09-25T17:52:01.293Z,2.80
2018-09-25T17:54:37.160Z,1.20
2018-09-25T17:57:13.080Z,2.63
2018-09-25T17:59:48.885Z,3.43
2018-09-25T18:02:25.054Z,1.53
2018-09-25T18:05:01.000Z,3.33
2018-09-25T18:07:36.923Z,1.20
2018-09-25T18:10:12.824Z,2.43
2018-09-25T18:12:48.976Z,1.97
2018-09-25T18:15:25.056Z,2.73
2018-09-25T18:18:00.880Z,2.97
2018-09-25T18:20:36.834Z,2.57
2018-09-25T18:23:12.897Z,2.50
2018-09-25T18:25:48.792Z,1.60
2018-09-25T18:28:24.616Z,3.70
2018-09-25T18:31:00.651Z,2.30
2018-09-25T18:33:36.696Z,4.87
2018-09-25T18:36:12.987Z,2.37
2018-09-25T18:38:55.725Z,3.27
2018-09-25T18:41:31.429Z,3.77
2018-09-25T18:44:07.241Z,1.93
2018-09-25T18:46:43.075Z,2.67
2018-09-25T18:49:18.727Z,4.63
2018-09-25T18:51:54.637Z,2.87
2018-09-25T18:54:30.626Z,3.17
2018-09-25T18:57:06.536Z,3.27
2018-09-25T18:59:42.437Z,3.40
2018-09-25T19:02:18.241Z,5.70
2018-09-25T19:04:54.149Z,6.27
2018-09-25T19:07:29.891Z,4.27
2018-09-25T19:10:05.823Z,4.97
2018-09-25T19:12:41.793Z,6.33
2018-09-25T19:15:17.710Z,4.60
2018-09-25T19:17:53.859Z,4.60
2018-09-25T19:20:29.695Z,3.80
2018-09-25T19:23:05.574Z,4.00
2018-09-25T19:25:41.300Z,3.47
2018-09-25T19:28:17.309Z,4.20
2018-09-25T19:30:53.321Z,7.27
2018-09-25T19:33:29.307Z,2.80
2018-09-25T19:36:05.097Z,3.87
2018-09-25T19:38:41.055Z,3.90
2018-09-25T19:41:16.912Z,2.93
2018-09-25T19:43:52.711Z,3.67
2018-09-25T19:46:28.463Z,3.53
2018-09-25T19:49:04.406Z,6.40
2018-09-25T19:51:40.237Z,6.17
2018-09-25T19:54:16.260Z,4.47
2018-09-25T19:56:52.314Z,4.93
2018-09-25T19:59:28.043Z,2.93
2018-09-25T20:02:04.071Z,3.93
2018-09-25T20:04:39.939Z,4.70
2018-09-25T20:07:15.705Z,5.67
2018-09-25T20:09:51.677Z,7.03
2018-09-25T20:12:27.509Z,4.17
2018-09-25T20:15:03.379Z,3.03
2018-09-25T20:17:39.113Z,5.00
2018-09-25T20:20:15.044Z,3.67
2018-09-25T20:22:51.000Z,7.00
2018-09-25T20:25:26.929Z,8.17
2018-09-25T20:28:02.849Z,9.13
2018-09-25T20:30:38.732Z,5.00
2018-09-25T20:33:14.670Z,4.90
2018-09-25T20:35:50.432Z,4.43
2018-09-25T20:38:26.131Z,7.10
2018-09-25T20:41:02.021Z,6.13
2018-09-25T20:43:37.929Z,4.17
2018-09-25T20:46:13.695Z,7.17
2018-09-25T20:48:49.683Z,3.57
2018-09-25T20:51:25.548Z,7.10
2018-09-25T20:54:01.355Z,4.27
2018-09-25T20:56:37.241Z,7.03
2018-09-25T20:59:13.020Z,6.50
2018-09-25T21:01:48.855Z,4.97
2018-09-25T21:04:24.929Z,4.97
2018-09-25T21:07:00.767Z,4.57
2018-09-25T21:09:36.547Z,4.83
2018-09-25T21:12:12.437Z,6.40
2018-09-25T21:14:48.330Z,4.57
2018-09-25T21:17:24.287Z,4.90
2018-09-25T21:20:00.229Z,3.70
2018-09-25T21:22:35.974Z,5.73
2018-09-25T21:25:11.922Z,3.93
2018-09-25T21:27:47.840Z,4.67
2018-09-25T21:30:23.805Z,3.93
2018-09-25T21:32:59.609Z,5.30
2018-09-25T21:35:35.587Z,4.13
2018-09-25T21:38:11.300Z,5.20
2018-09-25T21:40:47.368Z,2.73
2018-09-25T21:43:23.365Z,4.53
2018-09-25T21:45:59.332Z,4.50
2018-09-25T21:48:35.178Z,3.97
2018-09-25T21:51:11.100Z,4.70
2018-09-25T21:53:46.903Z,6.97
2018-09-25T21:56:22.662Z,4.93
2018-09-25T21:58:58.357Z,4.27
2018-09-25T22:01:34.245Z,3.87
2018-09-25T22:04:10.181Z,3.70
2018-09-25T22:06:45.937Z,5.17
2018-09-25T22:09:21.924Z,6.00
2018-09-25T22:11:57.676Z,4.63
2018-09-25T22:14:33.504Z,3.37
2018-09-25T22:17:09.326Z,5.00
2018-09-25T22:19:45.115Z,4.93
2018-09-25T22:22:20.752Z,3.40
2018-09-25T22:24:56.778Z,3.07
2018-09-25T22:27:32.634Z,4.20
2018-09-25T22:30:08.399Z,3.20
2018-09-25T22:32:44.317Z,3.90
2018-09-25T22:35:20.304Z,4.33
2018-09-25T22:37:56.011Z,3.20
2018-09-25T22:40:32.022Z,2.77
2018-09-25T22:43:07.721Z,2.90
2018-09-25T22:45:43.871Z,4.90
2018-09-25T22:48:19.634Z,3.17
2018-09-25T22:50:55.258Z,3.40
2018-09-25T22:53:31.238Z,2.50
2018-09-25T22:56:06.965Z,4.60
2018-09-25T22:58:42.789Z,3.63
2018-09-25T23:01:18.667Z,3.73
2018-09-25T23:03:54.624Z,2.77
2018-09-25T23:06:30.402Z,4.53
2018-09-25T23:09:06.181Z,2.87
2018-09-25T23:11:42.140Z,3.83
2018-09-25T23:14:18.026Z,3.73
2018-09-25T23:16:53.990Z,4.90
2018-09-25T23:19:29.792Z,2.77
2018-09-25T23:22:05.693Z,3.17
2018-09-25T23:24:41.386Z,4.07
2018-09-25T23:27:17.200Z,2.27
2018-09-25T23:29:53.025Z,2.33
2018-09-25T23:32:28.771Z,3.10
2018-09-25T23:35:04.587Z,3.90
2018-09-25T23:37:40.399Z,4.33
2018-09-25T23:40:17.323Z,3.77
2018-09-25T23:42:51.972Z,3.93
2018-09-25T23:45:29.739Z,3.37
2018-09-25T23:48:05.564Z,1.97
2018-09-25T23:52:49.235Z,3.90
2018-09-25T23:55:26.590Z,3.23
2018-09-25T23:58:05.402Z,4.67
